Puyallup, Washington
Current Conditions -  °F | °C
As of 7:58 AM on Sunday 21 Dec 2014 (Local Time) from KTCM Reporting Station
Overcast Overcast  
Wind Chill: 51°   Ceiling: 5500
Heat Index: 51°   Visibility: 10mi
Dew Point: 50°   Wind: 12mph
Humidity: 95%   Direction: 230°SW
Pressure: 29.89"   Gusts: NA
Location:  47.19°N, 122.29°W
Report Text: KTCM 211558Z AUTO 23010KT 10SM FEW022 BKN055 BKN140 OVC160 11/10 A2989 RMK AO2 PRESRR SLP126 T01060098
Loading
Personal Weather Stations






























Interactive Weather Map New forecast layout! Learn more

10-Day Weather Forecast

Advertisements
Track Severe Weather on mobile